createdAt,value
2023-09-17T00:00:05.730Z,79.82
2023-09-17T00:02:32.764Z,79.50
2023-09-17T00:04:59.218Z,80.62
2023-09-17T00:07:25.698Z,80.37
2023-09-17T00:09:52.069Z,80.68
2023-09-17T00:12:18.545Z,80.37
2023-09-17T00:14:44.978Z,80.56
2023-09-17T00:17:11.494Z,80.04
2023-09-17T00:19:38.244Z,79.72
2023-09-17T00:22:07.287Z,80.06
2023-09-17T00:24:34.295Z,80.54
2023-09-17T00:27:01.335Z,81.59
2023-09-17T00:29:27.777Z,80.72
2023-09-17T00:31:54.458Z,80.44
2023-09-17T00:34:20.922Z,80.08
2023-09-17T00:36:47.459Z,79.33
2023-09-17T00:39:13.867Z,79.98
2023-09-17T00:41:40.261Z,80.98
2023-09-17T00:44:06.696Z,79.93
2023-09-17T00:46:33.337Z,81.75
2023-09-17T00:49:01.324Z,81.77
2023-09-17T00:51:27.835Z,80.74
2023-09-17T00:53:57.461Z,79.98
2023-09-17T00:56:25.981Z,81.27
2023-09-17T00:58:53.270Z,80.49
2023-09-17T01:01:24.411Z,80.92
2023-09-17T01:03:52.174Z,81.01
2023-09-17T01:06:19.639Z,80.00
2023-09-17T01:08:46.337Z,80.24
2023-09-17T01:11:12.879Z,79.94
2023-09-17T01:13:43.097Z,80.04
2023-09-17T01:16:12.956Z,80.02
2023-09-17T01:18:39.535Z,80.75
2023-09-17T01:21:12.047Z,79.81
2023-09-17T01:23:43.148Z,80.54
2023-09-17T01:26:21.363Z,80.37
2023-09-17T01:28:47.833Z,80.89
2023-09-17T01:31:14.283Z,80.37
2023-09-17T01:33:40.764Z,80.77
2023-09-17T01:36:14.655Z,80.25
2023-09-17T01:38:53.483Z,80.87
2023-09-17T01:41:20.972Z,80.71
2023-09-17T01:43:48.228Z,80.29
2023-09-17T01:46:17.849Z,80.33
2023-09-17T01:48:46.795Z,81.34
2023-09-17T01:51:14.233Z,81.58
2023-09-17T01:53:40.891Z,81.56
2023-09-17T01:56:07.329Z,81.58
2023-09-17T01:58:35.073Z,80.88
2023-09-17T02:01:02.062Z,80.60
2023-09-17T02:03:30.155Z,80.46
2023-09-17T02:05:56.798Z,80.84
2023-09-17T02:08:23.238Z,80.30
2023-09-17T02:10:49.985Z,80.48
2023-09-17T02:13:16.457Z,80.78
2023-09-17T02:15:43.450Z,81.18
2023-09-17T02:18:09.851Z,80.62
2023-09-17T02:20:40.220Z,80.27
2023-09-17T02:23:07.788Z,80.47
2023-09-17T02:25:34.197Z,80.47
2023-09-17T02:28:00.612Z,80.92
2023-09-17T02:30:30.077Z,80.10
2023-09-17T02:32:57.096Z,80.21
2023-09-17T02:35:23.524Z,81.08
2023-09-17T02:37:50.595Z,81.36
2023-09-17T02:40:20.908Z,80.50
2023-09-17T02:42:48.634Z,81.05
2023-09-17T02:45:15.230Z,81.40
2023-09-17T02:47:42.197Z,81.14
2023-09-17T02:50:10.777Z,82.24
2023-09-17T02:52:37.397Z,82.17
2023-09-17T02:55:05.874Z,81.83
2023-09-17T02:57:32.617Z,82.40
2023-09-17T02:59:59.050Z,82.22
2023-09-17T03:02:25.913Z,82.66
2023-09-17T03:04:53.964Z,82.75
2023-09-17T03:07:20.538Z,82.24
2023-09-17T03:09:47.037Z,82.72
2023-09-17T03:12:13.486Z,83.07
2023-09-17T03:14:40.522Z,82.53
2023-09-17T03:17:07.115Z,82.36
2023-09-17T03:19:33.695Z,82.88
2023-09-17T03:22:01.957Z,83.71
2023-09-17T03:24:28.437Z,84.23
2023-09-17T03:26:54.808Z,84.72
2023-09-17T03:29:21.300Z,86.38
2023-09-17T03:31:49.440Z,86.38
2023-09-17T03:34:15.991Z,86.74
2023-09-17T03:36:42.413Z,87.03
2023-09-17T03:39:09.867Z,87.19
2023-09-17T03:41:41.112Z,87.37
2023-09-17T03:44:10.932Z,87.14
2023-09-17T03:46:38.389Z,86.67
2023-09-17T03:49:05.049Z,86.94
2023-09-17T03:51:32.060Z,87.05
2023-09-17T03:54:00.178Z,87.44
2023-09-17T03:56:26.905Z,86.88
2023-09-17T03:58:54.184Z,87.29
2023-09-17T04:01:22.101Z,86.77
2023-09-17T04:06:17.603Z,87.44
2023-09-17T04:08:44.095Z,87.61
2023-09-17T04:11:16.582Z,88.38
2023-09-17T04:13:52.199Z,87.92
2023-09-17T04:16:24.547Z,88.32
2023-09-17T04:18:51.623Z,88.08
2023-09-17T04:21:18.048Z,87.88
2023-09-17T04:23:44.437Z,88.38
2023-09-17T04:26:13.501Z,88.19
2023-09-17T04:28:40.047Z,88.39
2023-09-17T04:31:06.523Z,88.53
2023-09-17T04:33:32.940Z,88.49
2023-09-17T04:36:00.027Z,89.06
2023-09-17T04:38:26.524Z,89.47
2023-09-17T04:40:52.963Z,89.38
2023-09-17T04:43:22.746Z,89.73
2023-09-17T04:45:49.403Z,89.33
2023-09-17T04:48:17.390Z,89.55
2023-09-17T04:50:47.873Z,89.66
2023-09-17T04:53:15.068Z,89.90
2023-09-17T04:55:41.621Z,90.00
2023-09-17T04:58:08.157Z,90.08
2023-09-17T05:00:35.387Z,90.85
2023-09-17T05:03:01.955Z,90.56
2023-09-17T05:05:28.402Z,91.14
2023-09-17T05:07:55.009Z,90.93
2023-09-17T05:10:21.562Z,91.64
2023-09-17T05:12:48.047Z,91.41
2023-09-17T05:15:14.470Z,91.22
2023-09-17T05:17:41.012Z,91.52
2023-09-17T05:20:08.151Z,91.13
2023-09-17T05:22:36.115Z,91.29
2023-09-17T05:25:09.094Z,91.81
2023-09-17T05:27:35.731Z,91.32
2023-09-17T05:30:02.615Z,91.15
2023-09-17T05:32:29.589Z,91.26
2023-09-17T05:35:00.971Z,91.35
2023-09-17T05:37:28.446Z,91.76
2023-09-17T05:39:54.887Z,91.84
2023-09-17T05:42:23.603Z,92.01
2023-09-17T05:44:50.538Z,91.94
2023-09-17T05:47:17.037Z,92.34
2023-09-17T05:49:44.533Z,92.83
2023-09-17T05:52:11.013Z,93.12
2023-09-17T05:54:37.436Z,93.21
2023-09-17T05:57:03.941Z,93.05
2023-09-17T05:59:32.602Z,92.97
2023-09-17T06:02:00.692Z,93.04
2023-09-17T06:04:27.744Z,93.17
2023-09-17T06:06:54.261Z,93.24
2023-09-17T06:09:20.657Z,93.69
2023-09-17T06:11:49.313Z,93.46
2023-09-17T06:14:17.311Z,93.97
2023-09-17T06:16:56.653Z,94.02
2023-09-17T06:19:27.757Z,94.09
2023-09-17T06:21:54.778Z,94.62
2023-09-17T06:24:21.244Z,94.17
2023-09-17T06:26:47.840Z,94.51
2023-09-17T06:29:14.269Z,94.71
2023-09-17T06:31:41.457Z,94.40
2023-09-17T06:34:08.540Z,94.83
2023-09-17T06:36:34.905Z,94.63
2023-09-17T06:39:14.750Z,94.66
2023-09-17T06:41:43.523Z,95.13
2023-09-17T06:44:10.137Z,95.22
2023-09-17T06:46:36.846Z,94.66
2023-09-17T06:49:03.374Z,94.75
2023-09-17T06:51:29.834Z,95.32
2023-09-17T06:53:56.328Z,95.42
2023-09-17T06:56:25.928Z,95.32
2023-09-17T06:58:52.592Z,95.37
2023-09-17T07:01:19.955Z,95.68
2023-09-17T07:03:46.412Z,95.67
2023-09-17T07:06:12.829Z,95.50
2023-09-17T07:08:39.359Z,95.71
2023-09-17T07:11:06.146Z,96.17
2023-09-17T07:13:32.960Z,96.10
2023-09-17T07:15:59.555Z,96.01
2023-09-17T07:18:27.226Z,95.93
2023-09-17T07:20:54.691Z,95.66
2023-09-17T07:23:22.502Z,96.22
2023-09-17T07:25:51.333Z,95.94
2023-09-17T07:28:17.998Z,96.39
2023-09-17T07:30:44.433Z,95.98
2023-09-17T07:33:10.969Z,96.13
2023-09-17T07:35:39.978Z,96.21
2023-09-17T07:38:06.596Z,95.96
2023-09-17T07:40:34.276Z,95.76
2023-09-17T07:43:02.137Z,95.69
2023-09-17T07:45:28.546Z,95.88
2023-09-17T07:47:54.949Z,95.79
2023-09-17T07:50:21.421Z,96.07
2023-09-17T07:52:47.991Z,96.08
2023-09-17T07:55:14.385Z,95.84
2023-09-17T07:57:45.091Z,96.12
2023-09-17T08:00:13.503Z,95.94
2023-09-17T08:02:40.012Z,95.99
2023-09-17T08:05:08.310Z,96.09
2023-09-17T08:07:34.954Z,95.73
2023-09-17T08:10:01.372Z,95.96
2023-09-17T08:12:27.782Z,95.41
2023-09-17T08:14:56.120Z,95.43
2023-09-17T08:17:22.785Z,95.54
2023-09-17T08:19:49.352Z,95.33
2023-09-17T08:22:16.402Z,95.46
2023-09-17T08:24:42.912Z,95.31
2023-09-17T08:27:09.324Z,95.18
2023-09-17T08:29:36.218Z,94.70
2023-09-17T08:32:05.218Z,94.91
2023-09-17T08:34:31.643Z,95.04
2023-09-17T08:36:58.203Z,94.89
2023-09-17T08:39:26.784Z,94.78
2023-09-17T08:41:53.665Z,94.61
2023-09-17T08:44:20.884Z,94.99
2023-09-17T08:46:48.715Z,95.30
2023-09-17T08:49:15.358Z,94.72
2023-09-17T08:51:44.812Z,94.95
2023-09-17T08:54:15.760Z,94.97
2023-09-17T08:56:44.498Z,94.59
2023-09-17T08:59:15.976Z,93.89
2023-09-17T09:01:45.577Z,93.95
2023-09-17T09:04:13.956Z,94.56
2023-09-17T09:06:41.255Z,94.13
2023-09-17T09:09:09.368Z,93.84
2023-09-17T09:11:35.947Z,93.93
2023-09-17T09:14:08.271Z,93.52
2023-09-17T09:16:38.432Z,92.93
2023-09-17T09:19:05.592Z,93.43
2023-09-17T09:21:32.040Z,93.03
2023-09-17T09:23:58.549Z,93.64
2023-09-17T09:26:35.653Z,93.94
2023-09-17T09:29:03.190Z,93.83
2023-09-17T09:31:30.744Z,93.90
2023-09-17T09:34:00.677Z,93.95
2023-09-17T09:36:30.487Z,94.13
2023-09-17T09:39:00.356Z,94.19
2023-09-17T09:41:27.213Z,94.57
2023-09-17T09:43:54.920Z,94.74
2023-09-17T09:46:21.782Z,95.16
2023-09-17T09:48:48.298Z,95.25
2023-09-17T09:51:19.924Z,95.37
2023-09-17T09:53:46.331Z,95.51
2023-09-17T09:56:13.292Z,95.26
2023-09-17T09:58:40.585Z,94.89
2023-09-17T10:01:07.693Z,94.68
2023-09-17T10:03:35.004Z,94.51
2023-09-17T10:06:07.928Z,94.61
2023-09-17T10:08:37.678Z,94.77
2023-09-17T10:11:06.363Z,94.20
2023-09-17T10:13:34.242Z,94.24
2023-09-17T10:16:02.704Z,94.56
2023-09-17T10:18:31.315Z,94.65
2023-09-17T10:20:58.062Z,94.89
2023-09-17T10:23:25.393Z,94.90
2023-09-17T10:25:53.699Z,94.95
2023-09-17T10:28:27.409Z,94.81
2023-09-17T10:30:56.298Z,94.72
2023-09-17T10:33:24.470Z,94.47
2023-09-17T10:35:52.219Z,94.33
2023-09-17T10:38:23.767Z,94.67
2023-09-17T10:40:51.577Z,94.98
2023-09-17T10:43:18.508Z,95.12
2023-09-17T10:45:45.895Z,95.22
2023-09-17T10:48:13.442Z,94.64
2023-09-17T10:50:42.019Z,94.18
2023-09-17T10:53:08.519Z,94.38
2023-09-17T10:55:41.795Z,94.99
2023-09-17T10:58:16.761Z,95.17
2023-09-17T11:00:45.753Z,95.27
2023-09-17T11:03:17.522Z,94.79
2023-09-17T11:05:45.156Z,95.14
2023-09-17T11:08:12.773Z,95.85
2023-09-17T11:10:43.375Z,95.50
2023-09-17T11:13:14.018Z,95.29
2023-09-17T11:15:42.754Z,95.00
2023-09-17T11:18:09.902Z,94.56
2023-09-17T11:20:39.448Z,94.81
2023-09-17T11:23:06.184Z,94.95
2023-09-17T11:25:38.148Z,94.75
2023-09-17T11:28:12.921Z,95.12
2023-09-17T11:31:03.997Z,95.09
2023-09-17T11:33:37.357Z,95.37
2023-09-17T11:36:05.465Z,95.27
2023-09-17T11:38:32.474Z,95.24
2023-09-17T11:41:04.107Z,95.43
2023-09-17T11:43:31.318Z,95.11
2023-09-17T11:45:59.052Z,95.24
2023-09-17T11:48:27.366Z,94.97
2023-09-17T11:51:29.553Z,95.24
2023-09-17T11:54:04.362Z,95.56
2023-09-17T11:56:33.256Z,95.45
2023-09-17T11:59:05.258Z,95.57
2023-09-17T12:01:43.392Z,95.53
2023-09-17T12:04:11.340Z,95.32
2023-09-17T12:06:49.699Z,95.23
2023-09-17T12:09:25.254Z,95.19
2023-09-17T12:11:51.948Z,95.03
2023-09-17T12:14:20.572Z,95.33
2023-09-17T12:16:51.735Z,95.30
2023-09-17T12:19:19.318Z,95.03
2023-09-17T12:21:51.983Z,95.31
2023-09-17T12:24:24.782Z,95.26
2023-09-17T12:27:24.559Z,95.02
2023-09-17T12:29:53.195Z,94.91
2023-09-17T12:32:22.738Z,94.67
2023-09-17T12:34:50.873Z,94.69
2023-09-17T12:37:18.426Z,94.88
2023-09-17T12:39:45.842Z,94.40
2023-09-17T12:42:12.281Z,94.88
2023-09-17T12:44:38.714Z,94.61
2023-09-17T12:47:09.859Z,94.80
2023-09-17T12:49:36.579Z,95.43
2023-09-17T12:52:03.783Z,95.49
2023-09-17T12:54:30.510Z,94.91
2023-09-17T12:56:57.909Z,94.62
2023-09-17T12:59:32.144Z,94.40
2023-09-17T13:02:00.840Z,94.55
2023-09-17T13:04:44.466Z,95.25
2023-09-17T13:07:22.323Z,94.90
2023-09-17T13:09:50.934Z,94.96
2023-09-17T13:12:19.198Z,94.65
2023-09-17T13:14:48.624Z,94.72
2023-09-17T13:17:19.335Z,94.33
2023-09-17T13:19:47.549Z,94.08
2023-09-17T13:22:18.700Z,93.87
2023-09-17T13:24:46.181Z,93.96
2023-09-17T13:27:17.447Z,93.75
2023-09-17T13:29:50.685Z,93.23
2023-09-17T13:32:19.049Z,93.19
2023-09-17T13:34:46.095Z,92.77
2023-09-17T13:37:16.190Z,93.22
2023-09-17T13:39:44.674Z,93.22
2023-09-17T13:42:11.586Z,93.13
2023-09-17T13:44:38.143Z,93.67
2023-09-17T13:47:08.147Z,93.28
2023-09-17T13:49:34.552Z,93.45
2023-09-17T13:52:01.062Z,93.42
2023-09-17T13:54:27.449Z,93.20
2023-09-17T13:56:53.827Z,93.07
2023-09-17T13:59:20.411Z,93.07
2023-09-17T14:01:47.159Z,92.65
2023-09-17T14:04:13.756Z,92.94
2023-09-17T14:06:40.236Z,93.15
2023-09-17T14:09:06.675Z,93.38
2023-09-17T14:11:33.157Z,93.16
2023-09-17T14:13:59.823Z,93.65
2023-09-17T14:16:27.739Z,93.70
2023-09-17T14:18:54.383Z,93.39
2023-09-17T14:21:20.891Z,93.15
2023-09-17T14:23:47.387Z,93.69
2023-09-17T14:26:13.812Z,92.93
2023-09-17T14:28:40.302Z,93.00
2023-09-17T14:31:06.970Z,92.85
2023-09-17T14:33:34.467Z,93.05
2023-09-17T14:36:01.549Z,92.85
2023-09-17T14:38:27.961Z,92.67
2023-09-17T14:40:54.540Z,92.57
2023-09-17T14:43:21.902Z,92.65
2023-09-17T14:45:48.316Z,92.78
2023-09-17T14:48:15.511Z,93.02
2023-09-17T14:50:42.045Z,93.30
2023-09-17T14:53:08.471Z,93.39
2023-09-17T14:55:34.925Z,93.14
2023-09-17T14:58:01.357Z,93.19
2023-09-17T15:00:27.849Z,93.49
2023-09-17T15:02:54.383Z,93.54
2023-09-17T15:05:22.506Z,93.05
2023-09-17T15:07:49.371Z,93.00
2023-09-17T15:10:15.809Z,93.77
2023-09-17T15:12:42.553Z,93.57
2023-09-17T15:15:09.353Z,93.70
2023-09-17T15:17:36.969Z,93.16
2023-09-17T15:20:05.479Z,93.03
2023-09-17T15:22:32.089Z,93.17
2023-09-17T15:24:58.464Z,92.48
2023-09-17T15:27:24.917Z,92.62
2023-09-17T15:29:51.318Z,93.27
2023-09-17T15:32:17.879Z,93.52
2023-09-17T15:34:45.573Z,92.91
2023-09-17T15:37:12.149Z,92.85
2023-09-17T15:39:39.380Z,93.23
2023-09-17T15:42:05.841Z,92.85
2023-09-17T15:44:32.392Z,93.23
2023-09-17T15:47:00.793Z,93.42
2023-09-17T15:49:27.193Z,92.79
2023-09-17T15:51:53.852Z,93.50
2023-09-17T15:54:20.271Z,93.17
2023-09-17T15:56:46.734Z,93.59
2023-09-17T15:59:13.194Z,93.28
2023-09-17T16:01:41.704Z,93.07
2023-09-17T16:04:08.452Z,92.81
2023-09-17T16:06:35.087Z,93.00
2023-09-17T16:09:01.490Z,92.81
2023-09-17T16:11:27.965Z,92.89
2023-09-17T16:13:54.543Z,92.82
2023-09-17T16:16:21.134Z,92.61
2023-09-17T16:18:47.598Z,92.72
2023-09-17T16:21:15.013Z,92.79
2023-09-17T16:23:41.396Z,93.06
2023-09-17T16:26:07.936Z,93.34
2023-09-17T16:28:34.411Z,93.82
2023-09-17T16:31:00.841Z,94.06
2023-09-17T16:33:27.332Z,93.94
2023-09-17T16:35:54.981Z,93.96
2023-09-17T16:38:21.472Z,93.80
2023-09-17T16:40:48.374Z,94.16
2023-09-17T16:43:15.952Z,94.25
2023-09-17T16:45:43.709Z,94.43
2023-09-17T16:48:11.445Z,94.78
2023-09-17T16:50:37.917Z,94.78
2023-09-17T16:53:04.642Z,94.81
2023-09-17T16:55:31.066Z,95.16
2023-09-17T16:57:57.550Z,95.10
2023-09-17T17:00:24.930Z,95.27
2023-09-17T17:02:51.630Z,95.64
2023-09-17T17:05:19.504Z,95.92
2023-09-17T17:07:46.146Z,95.98
2023-09-17T17:10:12.993Z,96.17
2023-09-17T17:12:39.406Z,95.93
2023-09-17T17:15:08.109Z,95.85
2023-09-17T17:17:35.143Z,96.01
2023-09-17T17:20:01.591Z,96.24
2023-09-17T17:22:41.948Z,96.96
2023-09-17T17:25:11.962Z,96.89
2023-09-17T17:27:39.062Z,97.02
2023-09-17T17:30:07.851Z,96.88
2023-09-17T17:32:34.372Z,96.96
2023-09-17T17:35:00.918Z,97.12
2023-09-17T17:37:27.530Z,97.29
2023-09-17T17:39:58.358Z,97.52
2023-09-17T17:42:25.174Z,97.71
2023-09-17T17:44:51.636Z,97.48
2023-09-17T17:47:18.031Z,97.12
2023-09-17T17:49:44.530Z,97.16
2023-09-17T17:52:10.944Z,97.26
2023-09-17T17:54:37.330Z,97.54
2023-09-17T17:57:05.935Z,97.21
2023-09-17T17:59:32.414Z,97.18
2023-09-17T18:01:58.944Z,96.98
2023-09-17T18:04:25.424Z,96.74
2023-09-17T18:06:57.381Z,97.09
2023-09-17T18:09:23.895Z,97.21
2023-09-17T18:11:50.434Z,97.20
2023-09-17T18:14:17.026Z,97.12
2023-09-17T18:16:43.565Z,96.78
2023-09-17T18:19:10.291Z,97.15
2023-09-17T18:21:36.818Z,97.65
2023-09-17T18:24:03.573Z,97.71
2023-09-17T18:26:29.969Z,97.72
2023-09-17T18:28:58.349Z,97.98
2023-09-17T18:31:24.811Z,97.94
2023-09-17T18:33:51.376Z,98.01
2023-09-17T18:36:18.129Z,97.57
2023-09-17T18:38:45.244Z,97.13
2023-09-17T18:41:11.732Z,96.79
2023-09-17T18:43:38.538Z,96.85
2023-09-17T18:46:06.088Z,96.78
2023-09-17T18:48:32.536Z,96.82
2023-09-17T18:50:59.017Z,97.22
2023-09-17T18:53:25.410Z,97.15
2023-09-17T18:55:52.769Z,97.35
2023-09-17T18:58:19.233Z,97.70
2023-09-17T19:00:45.835Z,97.86
2023-09-17T19:03:12.914Z,97.53
2023-09-17T19:05:40.791Z,97.46
2023-09-17T19:08:07.548Z,97.54
2023-09-17T19:10:34.389Z,97.58
2023-09-17T19:13:01.226Z,97.93
2023-09-17T19:15:27.624Z,98.09
2023-09-17T19:17:54.031Z,98.01
2023-09-17T19:20:20.513Z,98.17
2023-09-17T19:22:46.949Z,98.06
2023-09-17T19:25:14.890Z,98.02
2023-09-17T19:27:41.791Z,97.58
2023-09-17T19:30:08.631Z,97.64
2023-09-17T19:32:35.190Z,97.79
2023-09-17T19:35:01.840Z,97.29
2023-09-17T19:37:28.306Z,97.38
2023-09-17T19:39:54.728Z,97.47
2023-09-17T19:42:21.569Z,97.45
2023-09-17T19:44:48.045Z,96.93
2023-09-17T19:47:14.491Z,96.93
2023-09-17T19:49:42.191Z,96.50
2023-09-17T19:52:12.690Z,96.71
2023-09-17T19:54:44.939Z,96.98
2023-09-17T19:57:11.804Z,96.88
2023-09-17T19:59:38.267Z,96.61
2023-09-17T20:02:04.938Z,95.92
2023-09-17T20:04:31.644Z,96.10
2023-09-17T20:07:00.073Z,97.23
2023-09-17T20:09:26.650Z,97.85
2023-09-17T20:11:54.289Z,98.04
2023-09-17T20:14:20.710Z,98.19
2023-09-17T20:16:47.232Z,98.15
2023-09-17T20:19:13.702Z,98.33
2023-09-17T20:21:40.726Z,98.37
2023-09-17T20:24:07.756Z,98.33
2023-09-17T20:26:37.167Z,98.00
2023-09-17T20:29:06.773Z,97.19
2023-09-17T20:31:33.495Z,97.46
2023-09-17T20:34:00.707Z,97.12
2023-09-17T20:36:27.070Z,97.08
2023-09-17T20:38:57.661Z,96.72
2023-09-17T20:41:24.779Z,96.63
2023-09-17T20:43:51.196Z,96.69
2023-09-17T20:46:18.429Z,97.13
2023-09-17T20:48:44.847Z,97.23
2023-09-17T20:51:11.221Z,97.18
2023-09-17T20:53:37.675Z,97.08
2023-09-17T20:56:05.125Z,97.10
2023-09-17T20:58:31.614Z,97.15
2023-09-17T21:00:58.167Z,97.26
2023-09-17T21:03:24.636Z,97.46
2023-09-17T21:05:51.125Z,97.00
2023-09-17T21:08:17.687Z,96.67
2023-09-17T21:10:44.501Z,96.45
2023-09-17T21:13:11.967Z,97.03
2023-09-17T21:15:39.119Z,97.63
2023-09-17T21:18:06.015Z,97.72
2023-09-17T21:20:32.978Z,97.55
2023-09-17T21:22:59.670Z,97.54
2023-09-17T21:25:26.329Z,97.29
2023-09-17T21:27:52.862Z,97.55
2023-09-17T21:30:19.490Z,97.82
2023-09-17T21:32:46.284Z,97.99
2023-09-17T21:35:13.337Z,98.18
2023-09-17T21:37:40.150Z,98.34
2023-09-17T21:40:07.060Z,98.48
2023-09-17T21:42:36.258Z,98.56
2023-09-17T21:45:03.493Z,98.46
2023-09-17T21:47:30.135Z,98.37
2023-09-17T21:50:00.532Z,98.58
2023-09-17T21:52:29.671Z,98.49
2023-09-17T21:54:56.855Z,98.63
2023-09-17T21:57:23.991Z,98.76
2023-09-17T21:59:51.124Z,99.00
2023-09-17T22:02:17.921Z,99.21
2023-09-17T22:04:45.370Z,99.07
2023-09-17T22:07:11.941Z,99.19
2023-09-17T22:09:39.905Z,99.64
2023-09-17T22:12:07.892Z,99.64
2023-09-17T22:14:35.794Z,99.63
2023-09-17T22:17:03.355Z,99.94
2023-09-17T22:19:30.742Z,100.00
2023-09-17T22:21:57.273Z,100.00
2023-09-17T22:24:24.901Z,99.80
2023-09-17T22:26:51.636Z,99.10
2023-09-17T22:29:18.564Z,98.85
2023-09-17T22:31:45.037Z,98.70
2023-09-17T22:34:11.536Z,98.61
2023-09-17T22:36:37.995Z,98.58
2023-09-17T22:39:04.904Z,98.64
2023-09-17T22:41:31.774Z,98.66
2023-09-17T22:44:11.846Z,98.16
2023-09-17T22:46:45.777Z,97.88
2023-09-17T22:49:13.624Z,97.95
2023-09-17T22:51:40.033Z,97.97
2023-09-17T22:54:06.415Z,98.25
2023-09-17T22:56:33.533Z,98.24
2023-09-17T22:59:00.145Z,98.50
2023-09-17T23:01:26.786Z,98.61
2023-09-17T23:03:53.273Z,98.83
2023-09-17T23:06:19.628Z,98.72
2023-09-17T23:08:46.064Z,98.94
2023-09-17T23:11:13.292Z,98.92
2023-09-17T23:13:41.184Z,98.98
2023-09-17T23:16:08.222Z,99.17
2023-09-17T23:18:34.989Z,99.19
2023-09-17T23:21:04.444Z,98.91
2023-09-17T23:23:30.890Z,99.11
2023-09-17T23:25:57.457Z,99.47
2023-09-17T23:28:32.964Z,99.81
2023-09-17T23:31:21.538Z,100.00
2023-09-17T23:33:48.005Z,100.00
2023-09-17T23:36:14.475Z,100.00
2023-09-17T23:38:40.925Z,100.00
2023-09-17T23:41:09.460Z,100.00
2023-09-17T23:43:38.194Z,100.00
2023-09-17T23:46:05.600Z,100.00
2023-09-17T23:48:32.018Z,100.00
2023-09-17T23:50:58.613Z,100.00
2023-09-17T23:53:25.069Z,100.00
2023-09-17T23:55:51.521Z,100.00
2023-09-17T23:58:18.435Z,100.00
